PWSweather.com
Personal Weather Stations
Station Observations
DW1039
Liberty & Fairfield Townships, Hamilton, OH 45011

Liberty & Fairfield TownshipsHamilton, OH 45011

Lat: 39.3933, Lon: -84.477

Elevation: 780

Station Type: Davis Vantage Pro2 (Daytime Fan Aspirated)

http://www.lfweathercenter.com/

High Low Average
Temperature 54.8°F12.7°C 43.6°F6.4°C 47.0°F8.3°C
Dew Point 49.4°F9.7°C 40.0°F4.4°C 43.3°F6.3°C
Winds 14.0 mph 22.5 kmh Calm Calm 7.0 mph WNW11.3 kmh WNW
Wind Gusts 19.0 mph30.6 kmh 5.0 mph8.0 kmh 13.0 mph20.9 kmh
Humidity 88% 82% 87%
Pressure 29.72 in1006.4 mb 29.42 in996.3 mb -
Precipitation 0.00 in0.0 mm - -
Hour Temp Dew Point Humidity Winds Wind Gusts Pressure Precip Precip Rate Daily Precip Total
12:00 AM 54.8°F12.7°C 49.4°F9.7°C 82% 5.0 mph N8.0 kmh N 14.0 mph22.5 kmh 29.44 in997.0 mb 0.00 in0.0 mm 0.00 in0.0 mm 0.00 in0.0 mm
12:10 AM 54.7°F12.6°C 49.3°F9.6°C 82% 9.0 mph N14.5 kmh N 13.0 mph20.9 kmh 29.43 in996.6 mb 0.00 in0.0 mm 0.00 in0.0 mm 0.00 in0.0 mm
12:21 AM 54.5°F12.5°C 49.1°F9.5°C 82% 13.0 mph N20.9 kmh N 13.0 mph20.9 kmh 29.43 in996.6 mb 0.00 in0.0 mm 0.00 in0.0 mm 0.00 in0.0 mm
12:30 AM 54.4°F12.4°C 49.4°F9.7°C 83% 6.0 mph N9.7 kmh N 14.0 mph22.5 kmh 29.43 in996.6 mb 0.00 in0.0 mm 0.00 in0.0 mm 0.00 in0.0 mm
12:40 AM 54.2°F12.3°C 49.2°F9.6°C 83% 8.0 mph N12.9 kmh N 14.0 mph22.5 kmh 29.43 in996.6 mb 0.00 in0.0 mm 0.00 in0.0 mm 0.00 in0.0 mm
12:52 AM 53.9°F12.2°C 49.2°F9.6°C 84% 8.0 mph N12.9 kmh N 15.0 mph24.1 kmh 29.43 in996.6 mb 0.00 in0.0 mm 0.00 in0.0 mm 0.00 in0.0 mm
01:00 AM 53.6°F12.0°C 48.9°F9.4°C 84% 14.0 mph NNW22.5 kmh NNW 16.0 mph25.7 kmh 29.43 in996.6 mb 0.00 in0.0 mm 0.00 in0.0 mm 0.00 in0.0 mm
01:13 AM 53.3°F11.8°C 48.6°F9.2°C 84% 7.0 mph N11.3 kmh N 14.0 mph22.5 kmh 29.43 in996.6 mb 0.00 in0.0 mm 0.00 in0.0 mm 0.00 in0.0 mm
01:20 AM 53.2°F11.8°C 48.5°F9.2°C 84% 13.0 mph NNE20.9 kmh NNE 17.0 mph27.4 kmh 29.42 in996.3 mb 0.00 in0.0 mm 0.00 in0.0 mm 0.00 in0.0 mm
01:30 AM 52.9°F11.6°C 48.2°F9.0°C 84% 12.0 mph N19.3 kmh N 17.0 mph27.4 kmh 29.42 in996.3 mb 0.00 in0.0 mm 0.00 in0.0 mm 0.00 in0.0 mm
01:41 AM 52.6°F11.4°C 48.2°F9.0°C 85% 12.0 mph NNE19.3 kmh NNE 19.0 mph30.6 kmh 29.42 in996.3 mb 0.00 in0.0 mm 0.00 in0.0 mm 0.00 in0.0 mm
01:50 AM 52.4°F11.3°C 48.0°F8.9°C 85% 6.0 mph NNE9.7 kmh NNE 14.0 mph22.5 kmh 29.43 in996.6 mb 0.00 in0.0 mm 0.00 in0.0 mm 0.00 in0.0 mm
02:00 AM 52.1°F11.2°C 47.7°F8.7°C 85% 11.0 mph NNE17.7 kmh NNE 13.0 mph20.9 kmh 29.44 in997.0 mb 0.00 in0.0 mm 0.00 in0.0 mm 0.00 in0.0 mm
02:10 AM 51.8°F11.0°C 47.4°F8.6°C 85% 11.0 mph N17.7 kmh N 11.0 mph17.7 kmh 29.43 in996.6 mb 0.00 in0.0 mm 0.00 in0.0 mm 0.00 in0.0 mm
02:20 AM 51.6°F10.9°C 47.3°F8.5°C 85% 5.0 mph N8.0 kmh N 16.0 mph25.7 kmh 29.43 in996.6 mb 0.00 in0.0 mm 0.00 in0.0 mm 0.00 in0.0 mm
02:30 AM 51.4°F10.8°C 47.4°F8.6°C 86% 11.0 mph N17.7 kmh N 17.0 mph27.4 kmh 29.43 in996.6 mb 0.00 in0.0 mm 0.00 in0.0 mm 0.00 in0.0 mm
02:40 AM 51.3°F10.7°C 47.0°F8.3°C 85% 3.0 mph N4.8 kmh N 14.0 mph22.5 kmh 29.44 in997.0 mb 0.00 in0.0 mm 0.00 in0.0 mm 0.00 in0.0 mm
02:50 AM 51.2°F10.7°C 47.2°F8.4°C 86% 8.0 mph NNW12.9 kmh NNW 14.0 mph22.5 kmh 29.43 in996.6 mb 0.00 in0.0 mm 0.00 in0.0 mm 0.00 in0.0 mm
03:00 AM 51.1°F10.6°C 47.1°F8.4°C 86% 7.0 mph NNW11.3 kmh NNW 15.0 mph24.1 kmh 29.44 in997.0 mb 0.00 in0.0 mm 0.00 in0.0 mm 0.00 in0.0 mm
03:10 AM 51.0°F10.6°C 47.0°F8.3°C 86% 13.0 mph NNE20.9 kmh NNE 18.0 mph29.0 kmh 29.44 in997.0 mb 0.00 in0.0 mm 0.00 in0.0 mm 0.00 in0.0 mm
03:20 AM 51.0°F10.6°C 47.0°F8.3°C 86% 7.0 mph N11.3 kmh N 14.0 mph22.5 kmh 29.44 in997.0 mb 0.00 in0.0 mm 0.00 in0.0 mm 0.00 in0.0 mm
03:30 AM 50.9°F10.5°C 46.9°F8.3°C 86% 5.0 mph N8.0 kmh N 13.0 mph20.9 kmh 29.44 in997.0 mb 0.00 in0.0 mm 0.00 in0.0 mm 0.00 in0.0 mm
03:40 AM 50.9°F10.5°C 46.9°F8.3°C 86% 7.0 mph N11.3 kmh N 15.0 mph24.1 kmh 29.44 in997.0 mb 0.00 in0.0 mm 0.00 in0.0 mm 0.00 in0.0 mm
03:50 AM 50.9°F10.5°C 46.9°F8.3°C 86% 7.0 mph N11.3 kmh N 17.0 mph27.4 kmh 29.44 in997.0 mb 0.00 in0.0 mm 0.00 in0.0 mm 0.00 in0.0 mm
04:00 AM 51.0°F10.6°C 47.0°F8.3°C 86% 10.0 mph NNW16.1 kmh NNW 17.0 mph27.4 kmh 29.44 in997.0 mb 0.00 in0.0 mm 0.00 in0.0 mm 0.00 in0.0 mm
04:10 AM 51.1°F10.6°C 47.1°F8.4°C 86% 7.0 mph N11.3 kmh N 12.0 mph19.3 kmh 29.44 in997.0 mb 0.00 in0.0 mm 0.00 in0.0 mm 0.00 in0.0 mm
04:20 AM 50.9°F10.5°C 46.9°F8.3°C 86% 9.0 mph NNW14.5 kmh NNW 16.0 mph25.7 kmh 29.44 in997.0 mb 0.00 in0.0 mm 0.00 in0.0 mm 0.00 in0.0 mm
04:30 AM 50.5°F10.3°C 46.2°F7.9°C 85% 12.0 mph NNE19.3 kmh NNE 17.0 mph27.4 kmh 29.44 in997.0 mb 0.00 in0.0 mm 0.00 in0.0 mm 0.00 in0.0 mm
04:40 AM 50.0°F10.0°C 46.0°F7.8°C 86% 8.0 mph NNW12.9 kmh NNW 17.0 mph27.4 kmh 29.45 in997.3 mb 0.00 in0.0 mm 0.00 in0.0 mm 0.00 in0.0 mm
04:50 AM 49.5°F9.7°C 45.5°F7.5°C 86% 6.0 mph NNW9.7 kmh NNW 14.0 mph22.5 kmh 29.45 in997.3 mb 0.00 in0.0 mm 0.00 in0.0 mm 0.00 in0.0 mm
05:00 AM 49.0°F9.4°C 45.0°F7.2°C 86% 5.0 mph NW8.0 kmh NW 18.0 mph29.0 kmh 29.45 in997.3 mb 0.00 in0.0 mm 0.00 in0.0 mm 0.00 in0.0 mm
05:10 AM 48.7°F9.3°C 44.7°F7.1°C 86% 7.0 mph NNW11.3 kmh NNW 17.0 mph27.4 kmh 29.45 in997.3 mb 0.00 in0.0 mm 0.00 in0.0 mm 0.00 in0.0 mm
05:20 AM 48.4°F9.1°C 44.4°F6.9°C 86% 5.0 mph N8.0 kmh N 14.0 mph22.5 kmh 29.45 in997.3 mb 0.00 in0.0 mm 0.00 in0.0 mm 0.00 in0.0 mm
05:30 AM 48.2°F9.0°C 44.2°F6.8°C 86% 10.0 mph N16.1 kmh N 12.0 mph19.3 kmh 29.46 in997.6 mb 0.00 in0.0 mm 0.00 in0.0 mm 0.00 in0.0 mm
05:40 AM 47.9°F8.8°C 43.9°F6.6°C 86% 10.0 mph N16.1 kmh N 13.0 mph20.9 kmh 29.46 in997.6 mb 0.00 in0.0 mm 0.00 in0.0 mm 0.00 in0.0 mm
05:50 AM 47.6°F8.7°C 43.9°F6.6°C 87% 9.0 mph NNW14.5 kmh NNW 18.0 mph29.0 kmh 29.46 in997.6 mb 0.00 in0.0 mm 0.00 in0.0 mm 0.00 in0.0 mm
06:00 AM 47.3°F8.5°C 43.6°F6.4°C 87% 10.0 mph N16.1 kmh N 13.0 mph20.9 kmh 29.46 in997.6 mb 0.00 in0.0 mm 0.00 in0.0 mm 0.00 in0.0 mm
06:10 AM 47.0°F8.3°C 43.3°F6.3°C 87% 11.0 mph NNW17.7 kmh NNW 15.0 mph24.1 kmh 29.46 in997.6 mb 0.00 in0.0 mm 0.00 in0.0 mm 0.00 in0.0 mm
06:20 AM 46.7°F8.2°C 43.0°F6.1°C 87% 12.0 mph N19.3 kmh N 14.0 mph22.5 kmh 29.46 in997.6 mb 0.00 in0.0 mm 0.00 in0.0 mm 0.00 in0.0 mm
06:30 AM 46.4°F8.0°C 42.8°F6.0°C 87% 7.0 mph NNE11.3 kmh NNE 15.0 mph24.1 kmh 29.47 in998.0 mb 0.00 in0.0 mm 0.00 in0.0 mm 0.00 in0.0 mm
06:40 AM 46.1°F7.8°C 42.5°F5.8°C 87% 11.0 mph NNW17.7 kmh NNW 16.0 mph25.7 kmh 29.47 in998.0 mb 0.00 in0.0 mm 0.00 in0.0 mm 0.00 in0.0 mm
06:50 AM 45.8°F7.7°C 42.2°F5.7°C 87% 13.0 mph N20.9 kmh N 18.0 mph29.0 kmh 29.47 in998.0 mb 0.00 in0.0 mm 0.00 in0.0 mm 0.00 in0.0 mm
07:00 AM 45.5°F7.5°C 41.9°F5.5°C 87% 4.0 mph NNW6.4 kmh NNW 14.0 mph22.5 kmh 29.48 in998.3 mb 0.00 in0.0 mm 0.00 in0.0 mm 0.00 in0.0 mm
07:10 AM 45.4°F7.4°C 41.8°F5.4°C 87% 3.0 mph NW4.8 kmh NW 12.0 mph19.3 kmh 29.49 in998.6 mb 0.00 in0.0 mm 0.00 in0.0 mm 0.00 in0.0 mm
07:20 AM 45.1°F7.3°C 41.5°F5.3°C 87% 5.0 mph NNW8.0 kmh NNW 13.0 mph20.9 kmh 29.49 in998.6 mb 0.01 in0.3 mm 0.06 in1.5 mm 0.01 in0.3 mm
07:30 AM 44.7°F7.1°C 41.1°F5.1°C 87% 6.0 mph N9.7 kmh N 14.0 mph22.5 kmh 29.50 in999.0 mb 0.01 in0.3 mm 0.00 in0.0 mm 0.01 in0.3 mm
07:40 AM 44.4°F6.9°C 40.8°F4.9°C 87% 11.0 mph NNW17.7 kmh NNW 16.0 mph25.7 kmh 29.50 in999.0 mb 0.01 in0.3 mm 0.00 in0.0 mm 0.01 in0.3 mm
07:50 AM 44.1°F6.7°C 40.5°F4.7°C 87% 6.0 mph NNW9.7 kmh NNW 16.0 mph25.7 kmh 29.51 in999.3 mb 0.01 in0.3 mm 0.00 in0.0 mm 0.01 in0.3 mm
08:00 AM 44.0°F6.7°C 40.4°F4.7°C 87% 7.0 mph N11.3 kmh N 14.0 mph22.5 kmh 29.52 in999.7 mb 0.01 in0.3 mm 0.00 in0.0 mm 0.01 in0.3 mm
08:10 AM 43.8°F6.6°C 40.5°F4.7°C 88% 13.0 mph NW20.9 kmh NW 13.0 mph20.9 kmh 29.51 in999.3 mb 0.01 in0.3 mm 0.00 in0.0 mm 0.01 in0.3 mm
08:20 AM 43.6°F6.4°C 40.0°F4.4°C 87% 13.0 mph NW20.9 kmh NW 15.0 mph24.1 kmh 29.52 in999.7 mb 0.00 in0.0 mm 0.00 in0.0 mm 0.01 in0.3 mm
08:30 AM 43.6°F6.4°C 40.0°F4.4°C 87% 9.0 mph N14.5 kmh N 14.0 mph22.5 kmh 29.52 in999.7 mb 0.00 in0.0 mm 0.00 in0.0 mm 0.01 in0.3 mm
08:40 AM 43.6°F6.4°C 40.0°F4.4°C 87% 6.0 mph NNW9.7 kmh NNW 16.0 mph25.7 kmh 29.53 in1000.0 mb 0.00 in0.0 mm 0.00 in0.0 mm 0.01 in0.3 mm
08:50 AM 43.6°F6.4°C 40.0°F4.4°C 87% 5.0 mph NW8.0 kmh NW 16.0 mph25.7 kmh 29.53 in1000.0 mb 0.00 in0.0 mm 0.00 in0.0 mm 0.01 in0.3 mm
09:00 AM 43.6°F6.4°C 40.0°F4.4°C 87% 6.0 mph NW9.7 kmh NW 11.0 mph17.7 kmh 29.54 in1000.3 mb 0.00 in0.0 mm 0.00 in0.0 mm 0.01 in0.3 mm
09:10 AM 43.6°F6.4°C 40.0°F4.4°C 87% 6.0 mph NW9.7 kmh NW 14.0 mph22.5 kmh 29.54 in1000.3 mb 0.00 in0.0 mm 0.00 in0.0 mm 0.01 in0.3 mm
09:21 AM 43.7°F6.5°C 40.1°F4.5°C 87% 9.0 mph NNW14.5 kmh NNW 18.0 mph29.0 kmh 29.54 in1000.3 mb 0.00 in0.0 mm 0.00 in0.0 mm 0.01 in0.3 mm
09:30 AM 43.8°F6.6°C 40.5°F4.7°C 88% 4.0 mph N6.4 kmh N 15.0 mph24.1 kmh 29.54 in1000.3 mb 0.00 in0.0 mm 0.00 in0.0 mm 0.01 in0.3 mm
09:40 AM 44.0°F6.7°C 40.7°F4.8°C 88% 6.0 mph NNW9.7 kmh NNW 15.0 mph24.1 kmh 29.55 in1000.7 mb 0.00 in0.0 mm 0.00 in0.0 mm 0.01 in0.3 mm
09:50 AM 44.2°F6.8°C 40.6°F4.8°C 87% 7.0 mph NNW11.3 kmh NNW 17.0 mph27.4 kmh 29.55 in1000.7 mb 0.00 in0.0 mm 0.00 in0.0 mm 0.01 in0.3 mm
10:00 AM 44.3°F6.8°C 40.7°F4.8°C 87% 9.0 mph NNW14.5 kmh NNW 15.0 mph24.1 kmh 29.56 in1001.0 mb 0.00 in0.0 mm 0.00 in0.0 mm 0.01 in0.3 mm
10:10 AM 44.3°F6.8°C 40.7°F4.8°C 87% 7.0 mph NNW11.3 kmh NNW 12.0 mph19.3 kmh 29.56 in1001.0 mb 0.00 in0.0 mm 0.00 in0.0 mm 0.01 in0.3 mm
10:20 AM 44.4°F6.9°C 40.8°F4.9°C 87% 10.0 mph NW16.1 kmh NW 15.0 mph24.1 kmh 29.56 in1001.0 mb 0.00 in0.0 mm 0.00 in0.0 mm 0.01 in0.3 mm
10:30 AM 44.5°F6.9°C 41.2°F5.1°C 88% 10.0 mph N16.1 kmh N 13.0 mph20.9 kmh 29.56 in1001.0 mb 0.00 in0.0 mm 0.00 in0.0 mm 0.01 in0.3 mm
10:40 AM 44.7°F7.1°C 41.4°F5.2°C 88% 5.0 mph N8.0 kmh N 12.0 mph19.3 kmh 29.56 in1001.0 mb 0.00 in0.0 mm 0.00 in0.0 mm 0.01 in0.3 mm
10:50 AM 45.0°F7.2°C 41.7°F5.4°C 88% 11.0 mph N17.7 kmh N 12.0 mph19.3 kmh 29.56 in1001.0 mb 0.01 in0.3 mm 0.06 in1.5 mm 0.02 in0.5 mm
11:00 AM 45.2°F7.3°C 41.9°F5.5°C 88% 12.0 mph N19.3 kmh N 15.0 mph24.1 kmh 29.56 in1001.0 mb 0.01 in0.3 mm 0.00 in0.0 mm 0.02 in0.5 mm
11:10 AM 45.4°F7.4°C 42.1°F5.6°C 88% 6.0 mph NW9.7 kmh NW 15.0 mph24.1 kmh 29.56 in1001.0 mb 0.01 in0.3 mm 0.00 in0.0 mm 0.02 in0.5 mm
11:20 AM 45.4°F7.4°C 42.1°F5.6°C 88% 13.0 mph N20.9 kmh N 14.0 mph22.5 kmh 29.56 in1001.0 mb 0.01 in0.3 mm 0.00 in0.0 mm 0.02 in0.5 mm
11:30 AM 45.6°F7.6°C 42.3°F5.7°C 88% 4.0 mph NNW6.4 kmh NNW 10.0 mph16.1 kmh 29.56 in1001.0 mb 0.01 in0.3 mm 0.00 in0.0 mm 0.02 in0.5 mm
11:40 AM 46.0°F7.8°C 42.7°F5.9°C 88% 6.0 mph NNW9.7 kmh NNW 12.0 mph19.3 kmh 29.57 in1001.4 mb 0.01 in0.3 mm 0.00 in0.0 mm 0.02 in0.5 mm
11:50 AM 46.0°F7.8°C 42.7°F5.9°C 88% 13.0 mph N20.9 kmh N 15.0 mph24.1 kmh 29.57 in1001.4 mb 0.00 in0.0 mm 0.00 in0.0 mm 0.02 in0.5 mm
12:00 PM 46.0°F7.8°C 42.7°F5.9°C 88% 7.0 mph NNW11.3 kmh NNW 16.0 mph25.7 kmh 29.56 in1001.0 mb 0.00 in0.0 mm 0.00 in0.0 mm 0.02 in0.5 mm
12:10 PM 46.0°F7.8°C 42.7°F5.9°C 88% 7.0 mph NNW11.3 kmh NNW 16.0 mph25.7 kmh 29.56 in1001.0 mb 0.00 in0.0 mm 0.00 in0.0 mm 0.02 in0.5 mm
12:20 PM 46.0°F7.8°C 42.7°F5.9°C 88% 9.0 mph NW14.5 kmh NW 16.0 mph25.7 kmh 29.56 in1001.0 mb 0.00 in0.0 mm 0.00 in0.0 mm 0.02 in0.5 mm
12:30 PM 46.1°F7.8°C 42.8°F6.0°C 88% 5.0 mph NNW8.0 kmh NNW 14.0 mph22.5 kmh 29.56 in1001.0 mb 0.00 in0.0 mm 0.00 in0.0 mm 0.02 in0.5 mm
12:40 PM 46.1°F7.8°C 42.8°F6.0°C 88% 7.0 mph NW11.3 kmh NW 14.0 mph22.5 kmh 29.56 in1001.0 mb 0.00 in0.0 mm 0.00 in0.0 mm 0.02 in0.5 mm
12:50 PM 46.3°F7.9°C 43.0°F6.1°C 88% 2.0 mph NNE3.2 kmh NNE 12.0 mph19.3 kmh 29.56 in1001.0 mb 0.00 in0.0 mm 0.00 in0.0 mm 0.02 in0.5 mm
01:00 PM 46.4°F8.0°C 43.1°F6.2°C 88% 9.0 mph N14.5 kmh N 11.0 mph17.7 kmh 29.56 in1001.0 mb 0.00 in0.0 mm 0.00 in0.0 mm 0.02 in0.5 mm
01:10 PM 46.6°F8.1°C 43.2°F6.2°C 88% 5.0 mph NNW8.0 kmh NNW 11.0 mph17.7 kmh 29.56 in1001.0 mb 0.00 in0.0 mm 0.00 in0.0 mm 0.02 in0.5 mm
01:20 PM 46.8°F8.2°C 43.4°F6.3°C 88% 4.0 mph NNW6.4 kmh NNW 11.0 mph17.7 kmh 29.56 in1001.0 mb 0.00 in0.0 mm 0.00 in0.0 mm 0.02 in0.5 mm
01:30 PM 47.2°F8.4°C 43.8°F6.6°C 88% 9.0 mph NNW14.5 kmh NNW 13.0 mph20.9 kmh 29.55 in1000.7 mb 0.00 in0.0 mm 0.00 in0.0 mm 0.02 in0.5 mm
01:40 PM 47.3°F8.5°C 43.6°F6.4°C 87% 7.0 mph NNW11.3 kmh NNW 14.0 mph22.5 kmh 29.55 in1000.7 mb 0.00 in0.0 mm 0.00 in0.0 mm 0.02 in0.5 mm
01:50 PM 47.7°F8.7°C 44.0°F6.7°C 87% 11.0 mph NNW17.7 kmh NNW 12.0 mph19.3 kmh 29.55 in1000.7 mb 0.00 in0.0 mm 0.00 in0.0 mm 0.02 in0.5 mm
02:00 PM 47.6°F8.7°C 43.9°F6.6°C 87% 14.0 mph NNW22.5 kmh NNW 14.0 mph22.5 kmh 29.55 in1000.7 mb 0.00 in0.0 mm 0.00 in0.0 mm 0.02 in0.5 mm
02:10 PM 47.6°F8.7°C 43.9°F6.6°C 87% 3.0 mph NW4.8 kmh NW 12.0 mph19.3 kmh 29.55 in1000.7 mb 0.00 in0.0 mm 0.00 in0.0 mm 0.02 in0.5 mm
02:20 PM 47.5°F8.6°C 43.8°F6.6°C 87% 12.0 mph NNW19.3 kmh NNW 16.0 mph25.7 kmh 29.55 in1000.7 mb 0.00 in0.0 mm 0.00 in0.0 mm 0.02 in0.5 mm
02:30 PM 47.4°F8.6°C 43.7°F6.5°C 87% 11.0 mph NNW17.7 kmh NNW 15.0 mph24.1 kmh 29.55 in1000.7 mb 0.00 in0.0 mm 0.00 in0.0 mm 0.02 in0.5 mm
02:40 PM 47.4°F8.6°C 43.7°F6.5°C 87% 8.0 mph NW12.9 kmh NW 15.0 mph24.1 kmh 29.55 in1000.7 mb 0.00 in0.0 mm 0.00 in0.0 mm 0.02 in0.5 mm
02:50 PM 47.2°F8.4°C 43.5°F6.4°C 87% 3.0 mph NNW4.8 kmh NNW 16.0 mph25.7 kmh 29.55 in1000.7 mb 0.00 in0.0 mm 0.00 in0.0 mm 0.02 in0.5 mm
03:00 PM 47.0°F8.3°C 43.3°F6.3°C 87% 8.0 mph N12.9 kmh N 12.0 mph19.3 kmh 29.55 in1000.7 mb 0.00 in0.0 mm 0.00 in0.0 mm 0.02 in0.5 mm
03:10 PM 47.0°F8.3°C 43.3°F6.3°C 87% 13.0 mph N20.9 kmh N 15.0 mph24.1 kmh 29.56 in1001.0 mb 0.00 in0.0 mm 0.00 in0.0 mm 0.02 in0.5 mm
03:20 PM 47.1°F8.4°C 43.4°F6.3°C 87% 6.0 mph NW9.7 kmh NW 18.0 mph29.0 kmh 29.56 in1001.0 mb 0.00 in0.0 mm 0.00 in0.0 mm 0.02 in0.5 mm
03:30 PM 47.2°F8.4°C 43.5°F6.4°C 87% 5.0 mph N8.0 kmh N 12.0 mph19.3 kmh 29.56 in1001.0 mb 0.00 in0.0 mm 0.00 in0.0 mm 0.02 in0.5 mm
03:40 PM 47.3°F8.5°C 43.6°F6.4°C 87% 8.0 mph N12.9 kmh N 18.0 mph29.0 kmh 29.56 in1001.0 mb 0.00 in0.0 mm 0.00 in0.0 mm 0.02 in0.5 mm
03:50 PM 47.6°F8.7°C 43.9°F6.6°C 87% 8.0 mph NW12.9 kmh NW 13.0 mph20.9 kmh 29.57 in1001.4 mb 0.00 in0.0 mm 0.00 in0.0 mm 0.02 in0.5 mm
04:00 PM 47.8°F8.8°C 44.1°F6.7°C 87% 8.0 mph NW12.9 kmh NW 13.0 mph20.9 kmh 29.57 in1001.4 mb 0.00 in0.0 mm 0.00 in0.0 mm 0.02 in0.5 mm
04:10 PM 47.7°F8.7°C 44.0°F6.7°C 87% 4.0 mph NW6.4 kmh NW 7.0 mph11.3 kmh 29.58 in1001.7 mb 0.00 in0.0 mm 0.00 in0.0 mm 0.02 in0.5 mm
04:20 PM 47.4°F8.6°C 43.7°F6.5°C 87% 5.0 mph NNW8.0 kmh NNW 14.0 mph22.5 kmh 29.58 in1001.7 mb 0.00 in0.0 mm 0.00 in0.0 mm 0.02 in0.5 mm
04:30 PM 47.2°F8.4°C 43.5°F6.4°C 87% 5.0 mph NNW8.0 kmh NNW 12.0 mph19.3 kmh 29.58 in1001.7 mb 0.01 in0.3 mm 0.06 in1.5 mm 0.03 in0.8 mm
04:40 PM 47.1°F8.4°C 43.4°F6.3°C 87% 3.0 mph NNW4.8 kmh NNW 10.0 mph16.1 kmh 29.59 in1002.0 mb 0.01 in0.3 mm 0.00 in0.0 mm 0.03 in0.8 mm
04:50 PM 47.1°F8.4°C 43.4°F6.3°C 87% 4.0 mph N6.4 kmh N 12.0 mph19.3 kmh 29.60 in1002.4 mb 0.02 in0.5 mm 0.06 in1.5 mm 0.04 in1.0 mm
05:00 PM 47.0°F8.3°C 43.3°F6.3°C 87% 9.0 mph NNW14.5 kmh NNW 11.0 mph17.7 kmh 29.60 in1002.4 mb 0.02 in0.5 mm 0.00 in0.0 mm 0.04 in1.0 mm
05:10 PM 46.9°F8.3°C 43.2°F6.2°C 87% 9.0 mph NW14.5 kmh NW 11.0 mph17.7 kmh 29.61 in1002.7 mb 0.04 in1.0 mm 0.12 in3.0 mm 0.06 in1.5 mm
05:20 PM 46.8°F8.2°C 43.4°F6.3°C 88% 3.0 mph NNW4.8 kmh NNW 8.0 mph12.9 kmh 29.61 in1002.7 mb 0.06 in1.5 mm 0.12 in3.0 mm 0.08 in2.0 mm
05:30 PM 46.6°F8.1°C 43.2°F6.2°C 88% 5.0 mph NNW8.0 kmh NNW 5.0 mph8.0 kmh 29.62 in1003.0 mb 0.06 in1.5 mm 0.00 in0.0 mm 0.08 in2.0 mm
05:40 PM 46.4°F8.0°C 42.8°F6.0°C 87% 5.0 mph NW8.0 kmh NW 10.0 mph16.1 kmh 29.61 in1002.7 mb 0.08 in2.0 mm 0.12 in3.0 mm 0.10 in2.5 mm
05:50 PM 46.3°F7.9°C 42.7°F5.9°C 87% 7.0 mph NNW11.3 kmh NNW 10.0 mph16.1 kmh 29.62 in1003.0 mb 0.08 in2.0 mm 0.00 in0.0 mm 0.10 in2.5 mm
06:00 PM 46.2°F7.9°C 42.9°F6.1°C 88% 5.0 mph NW8.0 kmh NW 9.0 mph14.5 kmh 29.62 in1003.0 mb 0.08 in2.0 mm 0.00 in0.0 mm 0.10 in2.5 mm
06:10 PM 46.0°F7.8°C 42.7°F5.9°C 88% 6.0 mph WNW9.7 kmh WNW 10.0 mph16.1 kmh 29.62 in1003.0 mb 0.07 in1.8 mm 0.00 in0.0 mm 0.10 in2.5 mm
06:20 PM 45.7°F7.6°C 42.4°F5.8°C 88% 3.0 mph NW4.8 kmh NW 10.0 mph16.1 kmh 29.63 in1003.4 mb 0.07 in1.8 mm 0.00 in0.0 mm 0.10 in2.5 mm
06:30 PM 45.6°F7.6°C 42.3°F5.7°C 88% 3.0 mph NNW4.8 kmh NNW 9.0 mph14.5 kmh 29.63 in1003.4 mb 0.05 in1.3 mm 0.00 in0.0 mm 0.10 in2.5 mm
06:40 PM 45.5°F7.5°C 42.2°F5.7°C 88% 3.0 mph NW4.8 kmh NW 6.0 mph9.7 kmh 29.63 in1003.4 mb 0.03 in0.8 mm 0.00 in0.0 mm 0.10 in2.5 mm
06:50 PM 45.3°F7.4°C 42.0°F5.6°C 88% 9.0 mph NNW14.5 kmh NNW 12.0 mph19.3 kmh 29.64 in1003.7 mb 0.02 in0.5 mm 0.00 in0.0 mm 0.10 in2.5 mm
07:00 PM 45.2°F7.3°C 41.9°F5.5°C 88% 4.0 mph NNW6.4 kmh NNW 13.0 mph20.9 kmh 29.64 in1003.7 mb 0.02 in0.5 mm 0.00 in0.0 mm 0.10 in2.5 mm
07:10 PM 45.1°F7.3°C 41.8°F5.4°C 88% 2.0 mph NNW3.2 kmh NNW 9.0 mph14.5 kmh 29.65 in1004.1 mb 0.01 in0.3 mm 0.00 in0.0 mm 0.10 in2.5 mm
07:20 PM 45.0°F7.2°C 41.7°F5.4°C 88% 6.0 mph NW9.7 kmh NW 14.0 mph22.5 kmh 29.65 in1004.1 mb 0.01 in0.3 mm 0.00 in0.0 mm 0.10 in2.5 mm
07:30 PM 44.7°F7.1°C 41.4°F5.2°C 88% 5.0 mph N8.0 kmh N 12.0 mph19.3 kmh 29.65 in1004.1 mb 0.00 in0.0 mm 0.00 in0.0 mm 0.10 in2.5 mm
07:40 PM 44.5°F6.9°C 41.2°F5.1°C 88% 3.0 mph NW4.8 kmh NW 11.0 mph17.7 kmh 29.66 in1004.4 mb 0.00 in0.0 mm 0.00 in0.0 mm 0.10 in2.5 mm
07:50 PM 44.6°F7.0°C 41.3°F5.2°C 88% 7.0 mph NNW11.3 kmh NNW 11.0 mph17.7 kmh 29.67 in1004.7 mb 0.02 in0.5 mm 0.12 in3.0 mm 0.12 in3.0 mm
08:00 PM 44.6°F7.0°C 41.3°F5.2°C 88% 3.0 mph NW4.8 kmh NW 11.0 mph17.7 kmh 29.67 in1004.7 mb 0.03 in0.8 mm 0.01 in0.3 mm 0.13 in3.3 mm
08:18 PM 44.5°F6.9°C 41.2°F5.1°C 88% 1.0 mph NW1.6 kmh NW 7.0 mph11.3 kmh 29.67 in1004.7 mb 0.05 in1.3 mm 0.07 in1.8 mm 0.15 in3.8 mm
08:30 PM 44.3°F6.8°C 41.0°F5.0°C 88% 9.0 mph NNW14.5 kmh NNW 13.0 mph20.9 kmh 29.67 in1004.7 mb 0.07 in1.8 mm 0.10 in2.5 mm 0.17 in4.3 mm
08:40 PM 44.2°F6.8°C 40.9°F4.9°C 88% 6.0 mph NNW9.7 kmh NNW 13.0 mph20.9 kmh 29.68 in1005.1 mb 0.08 in2.0 mm 0.06 in1.5 mm 0.18 in4.6 mm
08:50 PM 44.1°F6.7°C 40.8°F4.9°C 88% 6.0 mph NW9.7 kmh NW 11.0 mph17.7 kmh 29.68 in1005.1 mb 0.08 in2.0 mm 0.00 in0.0 mm 0.18 in4.6 mm
09:00 PM 44.1°F6.7°C 40.8°F4.9°C 88% 6.0 mph NW9.7 kmh NW 8.0 mph12.9 kmh 29.68 in1005.1 mb 0.08 in2.0 mm 0.00 in0.0 mm 0.18 in4.6 mm
09:10 PM 44.1°F6.7°C 40.8°F4.9°C 88% 3.0 mph NW4.8 kmh NW 7.0 mph11.3 kmh 29.68 in1005.1 mb 0.08 in2.0 mm 0.00 in0.0 mm 0.18 in4.6 mm
09:20 PM 44.1°F6.7°C 40.8°F4.9°C 88% 4.0 mph NW6.4 kmh NW 9.0 mph14.5 kmh 29.69 in1005.4 mb 0.06 in1.5 mm 0.00 in0.0 mm 0.18 in4.6 mm
09:30 PM 44.1°F6.7°C 40.8°F4.9°C 88% Calm Calm 7.0 mph11.3 kmh 29.68 in1005.1 mb 0.05 in1.3 mm 0.00 in0.0 mm 0.18 in4.6 mm
09:40 PM 44.1°F6.7°C 40.8°F4.9°C 88% Calm Calm 11.0 mph17.7 kmh 29.68 in1005.1 mb 0.04 in1.0 mm 0.00 in0.0 mm 0.18 in4.6 mm
09:50 PM 44.1°F6.7°C 40.8°F4.9°C 88% 3.0 mph NW4.8 kmh NW 10.0 mph16.1 kmh 29.68 in1005.1 mb 0.03 in0.8 mm 0.00 in0.0 mm 0.18 in4.6 mm
10:00 PM 44.1°F6.7°C 40.8°F4.9°C 88% 4.0 mph NW6.4 kmh NW 7.0 mph11.3 kmh 29.69 in1005.4 mb 0.02 in0.5 mm 0.00 in0.0 mm 0.18 in4.6 mm
10:10 PM 44.1°F6.7°C 40.8°F4.9°C 88% 4.0 mph NW6.4 kmh NW 7.0 mph11.3 kmh 29.69 in1005.4 mb 0.00 in0.0 mm 0.00 in0.0 mm 0.18 in4.6 mm
10:20 PM 44.1°F6.7°C 40.8°F4.9°C 88% Calm Calm 11.0 mph17.7 kmh 29.70 in1005.8 mb 0.00 in0.0 mm 0.00 in0.0 mm 0.18 in4.6 mm
10:30 PM 44.3°F6.8°C 41.0°F5.0°C 88% Calm Calm 8.0 mph12.9 kmh 29.70 in1005.8 mb 0.00 in0.0 mm 0.00 in0.0 mm 0.18 in4.6 mm
10:40 PM 44.3°F6.8°C 41.0°F5.0°C 88% 4.0 mph NW6.4 kmh NW 9.0 mph14.5 kmh 29.70 in1005.8 mb 0.00 in0.0 mm 0.00 in0.0 mm 0.18 in4.6 mm
10:50 PM 44.4°F6.9°C 41.1°F5.1°C 88% 3.0 mph NW4.8 kmh NW 9.0 mph14.5 kmh 29.70 in1005.8 mb 0.00 in0.0 mm 0.00 in0.0 mm 0.18 in4.6 mm
11:00 PM 44.3°F6.8°C 41.0°F5.0°C 88% 7.0 mph NNW11.3 kmh NNW 11.0 mph17.7 kmh 29.70 in1005.8 mb 0.00 in0.0 mm 0.00 in0.0 mm 0.18 in4.6 mm
11:10 PM 44.3°F6.8°C 41.0°F5.0°C 88% 2.0 mph NW3.2 kmh NW 5.0 mph8.0 kmh 29.71 in1006.1 mb 0.00 in0.0 mm 0.00 in0.0 mm 0.18 in4.6 mm
11:20 PM 44.3°F6.8°C 41.0°F5.0°C 88% 4.0 mph NW6.4 kmh NW 9.0 mph14.5 kmh 29.71 in1006.1 mb 0.00 in0.0 mm 0.00 in0.0 mm 0.18 in4.6 mm
11:30 PM 44.4°F6.9°C 41.1°F5.1°C 88% Calm Calm 6.0 mph9.7 kmh 29.71 in1006.1 mb 0.00 in0.0 mm 0.00 in0.0 mm 0.18 in4.6 mm
11:40 PM 44.4°F6.9°C 41.1°F5.1°C 88% 3.0 mph W4.8 kmh W 7.0 mph11.3 kmh 29.71 in1006.1 mb 0.00 in0.0 mm 0.00 in0.0 mm 0.18 in4.6 mm
11:50 PM 44.0°F6.7°C 40.7°F4.8°C 88% Calm Calm 7.0 mph11.3 kmh 29.72 in1006.4 mb 0.01 in0.3 mm 0.06 in1.5 mm 0.19 in4.8 mm